createdAt,value
2023-01-15T00:02:08.744Z,6.29
2023-01-15T00:04:37.117Z,6.24
2023-01-15T00:07:05.475Z,6.39
2023-01-15T00:09:35.627Z,6.42
2023-01-15T00:12:04.043Z,6.50
2023-01-15T00:14:32.406Z,6.48
2023-01-15T00:17:00.717Z,6.38
2023-01-15T00:19:28.999Z,6.41
2023-01-15T00:21:58.413Z,6.44
2023-01-15T00:24:43.858Z,6.47
2023-01-15T00:27:31.094Z,6.51
2023-01-15T00:29:59.438Z,6.46
2023-01-15T00:32:29.781Z,6.70
2023-01-15T00:34:59.765Z,6.63
2023-01-15T00:37:28.268Z,6.61
2023-01-15T00:39:56.554Z,6.27
2023-01-15T00:42:26.375Z,6.54
2023-01-15T00:44:54.664Z,6.58
2023-01-15T00:47:23.044Z,6.63
2023-01-15T00:49:52.128Z,6.61
2023-01-15T00:52:20.598Z,6.54
2023-01-15T00:54:49.711Z,6.72
2023-01-15T00:57:18.099Z,6.63
2023-01-15T00:59:47.784Z,6.93
2023-01-15T01:02:16.309Z,6.75
2023-01-15T01:04:44.900Z,6.69
2023-01-15T01:07:13.610Z,6.49
2023-01-15T01:09:41.849Z,6.75
2023-01-15T01:12:10.337Z,6.77
2023-01-15T01:14:38.935Z,6.66
2023-01-15T01:17:08.732Z,6.80
2023-01-15T01:19:38.218Z,6.68
2023-01-15T01:22:06.577Z,6.65
2023-01-15T01:24:34.931Z,6.64
2023-01-15T01:27:03.338Z,6.90
2023-01-15T01:29:31.620Z,6.76
2023-01-15T01:31:59.948Z,6.83
2023-01-15T01:34:29.709Z,6.89
2023-01-15T01:36:58.055Z,6.93
2023-01-15T01:39:26.394Z,6.92
2023-01-15T01:41:54.712Z,6.71
2023-01-15T01:45:04.991Z,6.89
2023-01-15T01:47:34.815Z,6.93
2023-01-15T01:50:08.491Z,6.77
2023-01-15T01:52:39.442Z,6.77
2023-01-15T01:55:09.274Z,6.92
2023-01-15T01:57:38.980Z,6.66
2023-01-15T02:00:10.999Z,6.76
2023-01-15T02:02:40.490Z,7.04
2023-01-15T02:05:12.809Z,7.09
2023-01-15T02:07:41.453Z,7.11
2023-01-15T02:10:15.780Z,6.99
2023-01-15T02:12:50.924Z,6.58
2023-01-15T02:15:25.433Z,7.03
2023-01-15T02:17:57.926Z,7.00
2023-01-15T02:20:33.644Z,7.02
2023-01-15T02:23:29.542Z,7.13
2023-01-15T02:26:24.007Z,7.04
2023-01-15T02:28:56.781Z,6.97
2023-01-15T02:31:29.105Z,6.81
2023-01-15T02:34:01.451Z,7.15
2023-01-15T02:36:32.095Z,7.13
2023-01-15T02:39:03.349Z,7.14
2023-01-15T02:41:37.278Z,7.27
2023-01-15T02:44:10.248Z,7.13
2023-01-15T02:46:40.509Z,7.10
2023-01-15T02:49:13.556Z,7.13
2023-01-15T02:51:46.439Z,7.18
2023-01-15T02:54:17.897Z,7.08
2023-01-15T02:56:48.300Z,7.20
2023-01-15T02:59:23.883Z,7.24
2023-01-15T03:01:57.536Z,7.24
2023-01-15T03:04:30.106Z,7.10
2023-01-15T03:07:05.200Z,7.19
2023-01-15T03:09:34.209Z,7.28
2023-01-15T03:12:09.758Z,7.26
2023-01-15T03:14:46.036Z,7.47
2023-01-15T03:17:19.507Z,6.69
2023-01-15T03:19:52.444Z,7.25
2023-01-15T03:22:27.577Z,7.36
2023-01-15T03:24:58.735Z,7.33
2023-01-15T03:27:27.183Z,7.34
2023-01-15T03:30:02.204Z,7.45
2023-01-15T03:32:31.490Z,7.46
2023-01-15T03:35:00.617Z,7.31
2023-01-15T03:37:29.830Z,7.19
2023-01-15T03:39:59.365Z,7.11
2023-01-15T03:42:39.980Z,6.63
2023-01-15T03:45:15.148Z,6.94
2023-01-15T03:47:54.737Z,6.84
2023-01-15T03:50:29.000Z,6.80
2023-01-15T03:53:07.888Z,6.80
2023-01-15T03:55:43.779Z,6.84
2023-01-15T03:58:18.058Z,6.70
2023-01-15T04:00:52.640Z,6.75
2023-01-15T04:03:23.763Z,6.70
2023-01-15T04:05:54.078Z,6.71
2023-01-15T04:08:22.648Z,6.60
2023-01-15T04:10:54.886Z,6.03
2023-01-15T04:13:23.823Z,6.40
2023-01-15T04:15:54.645Z,6.29
2023-01-15T04:18:23.092Z,6.39
2023-01-15T04:20:51.373Z,6.21
2023-01-15T04:23:19.806Z,6.36
2023-01-15T04:25:48.134Z,6.17
2023-01-15T04:28:16.501Z,6.10
2023-01-15T04:30:44.929Z,6.02
2023-01-15T04:33:14.724Z,6.02
2023-01-15T04:35:43.131Z,6.06
2023-01-15T04:38:11.583Z,6.04
2023-01-15T04:40:57.239Z,6.05
2023-01-15T04:43:42.804Z,6.00
2023-01-15T04:46:11.198Z,5.88
2023-01-15T04:48:42.001Z,5.91
2023-01-15T04:51:10.330Z,5.89
2023-01-15T04:53:38.656Z,5.77
2023-01-15T04:56:07.851Z,5.94
2023-01-15T04:58:36.577Z,5.88
2023-01-15T05:01:06.715Z,5.71
2023-01-15T05:03:35.114Z,5.85
2023-01-15T05:06:05.547Z,5.58
2023-01-15T05:08:34.262Z,5.74
2023-01-15T05:11:07.054Z,5.86
2023-01-15T05:13:35.785Z,5.85
2023-01-15T05:16:12.511Z,5.81
2023-01-15T05:18:41.077Z,5.89
2023-01-15T05:21:16.393Z,5.76
2023-01-15T05:23:44.802Z,5.53
2023-01-15T05:26:13.339Z,5.52
2023-01-15T05:28:41.769Z,5.53
2023-01-15T05:31:11.064Z,5.51
2023-01-15T05:33:40.349Z,5.54
2023-01-15T05:36:12.608Z,5.44
2023-01-15T05:38:41.590Z,5.15
2023-01-15T05:41:26.300Z,5.28
2023-01-15T05:43:54.801Z,5.28
2023-01-15T05:46:23.814Z,5.38
2023-01-15T05:48:52.363Z,5.35
2023-01-15T05:51:22.304Z,5.16
2023-01-15T05:53:50.767Z,5.26
2023-01-15T05:56:19.169Z,5.27
2023-01-15T05:58:47.595Z,5.24
2023-01-15T06:01:16.491Z,5.24
2023-01-15T06:03:45.001Z,5.21
2023-01-15T06:06:16.130Z,4.85
2023-01-15T06:08:46.028Z,5.20
2023-01-15T06:11:14.809Z,5.15
2023-01-15T06:13:43.180Z,5.15
2023-01-15T06:16:12.255Z,5.07
2023-01-15T06:18:41.247Z,4.97
2023-01-15T06:21:11.645Z,4.95
2023-01-15T06:23:40.867Z,4.89
2023-01-15T06:26:13.478Z,4.91
2023-01-15T06:28:42.165Z,4.76
2023-01-15T06:31:11.829Z,4.96
2023-01-15T06:33:40.489Z,5.04
2023-01-15T06:36:11.516Z,4.61
2023-01-15T06:38:40.530Z,4.60
2023-01-15T06:41:27.467Z,4.55
2023-01-15T06:44:13.223Z,4.47
2023-01-15T06:47:03.260Z,4.32
2023-01-15T06:49:31.973Z,4.39
2023-01-15T06:52:00.959Z,4.27
2023-01-15T06:54:29.396Z,4.29
2023-01-15T06:56:59.170Z,4.37
2023-01-15T06:59:27.536Z,4.14
2023-01-15T07:01:56.052Z,4.40
2023-01-15T07:04:24.477Z,4.40
2023-01-15T07:06:52.852Z,4.39
2023-01-15T07:09:21.124Z,4.39
2023-01-15T07:11:52.110Z,4.36
2023-01-15T07:14:24.016Z,3.95
2023-01-15T07:16:53.810Z,4.19
2023-01-15T07:19:22.380Z,4.24
2023-01-15T07:21:50.692Z,4.04
2023-01-15T07:24:19.453Z,4.06
2023-01-15T07:26:48.295Z,3.99
2023-01-15T07:29:16.894Z,3.64
2023-01-15T07:31:46.889Z,3.84
2023-01-15T07:34:15.402Z,3.97
2023-01-15T07:36:44.565Z,3.88
2023-01-15T07:39:13.297Z,3.80
2023-01-15T07:41:59.526Z,3.57
2023-01-15T07:44:45.086Z,3.95
2023-01-15T07:47:37.469Z,3.96
2023-01-15T07:50:08.366Z,3.96
2023-01-15T07:52:36.820Z,3.89
2023-01-15T07:55:05.609Z,3.84
2023-01-15T07:57:33.986Z,3.89
2023-01-15T08:00:02.425Z,3.86
2023-01-15T08:02:32.136Z,3.89
2023-01-15T08:05:00.447Z,3.79
2023-01-15T08:07:29.173Z,3.67
2023-01-15T08:09:57.434Z,3.52
2023-01-15T08:12:42.916Z,3.65
2023-01-15T08:15:15.221Z,3.66
2023-01-15T08:17:46.772Z,3.75
2023-01-15T08:20:17.812Z,3.73
2023-01-15T08:22:47.242Z,3.74
2023-01-15T08:25:18.925Z,3.72
2023-01-15T08:27:48.369Z,3.84
2023-01-15T08:30:18.786Z,3.79
2023-01-15T08:32:49.299Z,3.79
2023-01-15T08:35:18.220Z,3.60
2023-01-15T08:37:46.675Z,3.81
2023-01-15T08:40:15.497Z,3.88
2023-01-15T08:42:44.142Z,3.90
2023-01-15T08:45:14.323Z,3.70
2023-01-15T08:47:42.675Z,3.66
2023-01-15T08:50:13.175Z,3.68
2023-01-15T08:52:41.799Z,3.59
2023-01-15T08:55:10.584Z,3.58
2023-01-15T08:57:38.971Z,3.51
2023-01-15T09:00:09.284Z,3.51
2023-01-15T09:02:37.637Z,3.51
2023-01-15T09:05:06.692Z,3.61
2023-01-15T09:07:37.355Z,3.46
2023-01-15T09:10:06.335Z,3.36
2023-01-15T09:12:34.978Z,3.32
2023-01-15T09:15:03.624Z,3.35
2023-01-15T09:17:33.894Z,3.30
2023-01-15T09:20:03.333Z,3.27
2023-01-15T09:22:31.757Z,2.92
2023-01-15T09:25:01.793Z,3.17
2023-01-15T09:27:30.731Z,3.27
2023-01-15T09:29:58.990Z,3.06
2023-01-15T09:32:27.426Z,3.20
2023-01-15T09:34:56.157Z,3.24
2023-01-15T09:37:24.753Z,3.19
2023-01-15T09:39:53.144Z,3.00
2023-01-15T09:42:44.066Z,3.02
2023-01-15T09:45:19.726Z,2.89
2023-01-15T09:48:11.880Z,2.93
2023-01-15T09:50:56.062Z,2.97
2023-01-15T09:53:54.596Z,3.11
2023-01-15T09:56:24.850Z,3.04
2023-01-15T09:58:57.056Z,3.06
2023-01-15T10:01:28.432Z,3.08
2023-01-15T10:04:04.870Z,3.38
2023-01-15T10:06:40.944Z,3.11
2023-01-15T10:09:17.670Z,3.06
2023-01-15T10:12:20.399Z,3.03
2023-01-15T10:14:59.773Z,3.06
2023-01-15T10:17:35.336Z,3.18
2023-01-15T10:20:04.153Z,3.09
2023-01-15T10:22:50.116Z,3.07
2023-01-15T10:25:24.020Z,3.04
2023-01-15T10:27:54.409Z,3.06
2023-01-15T10:30:37.613Z,2.95
2023-01-15T10:33:21.082Z,3.02
2023-01-15T10:35:55.682Z,2.84
2023-01-15T10:38:33.839Z,2.75
2023-01-15T10:41:27.540Z,2.75
2023-01-15T10:44:01.265Z,2.78
2023-01-15T10:46:33.777Z,2.70
2023-01-15T10:49:06.744Z,2.86
2023-01-15T10:51:41.085Z,2.89
2023-01-15T10:54:18.240Z,2.89
2023-01-15T10:56:53.052Z,2.84
2023-01-15T10:59:25.242Z,2.71
2023-01-15T11:01:57.270Z,2.79
2023-01-15T11:04:28.449Z,2.83
2023-01-15T11:06:56.815Z,2.66
2023-01-15T11:09:31.612Z,2.65
2023-01-15T11:12:31.832Z,2.63
2023-01-15T11:15:17.538Z,2.71
2023-01-15T11:18:16.579Z,2.58
2023-01-15T11:20:46.787Z,2.65
2023-01-15T11:23:18.162Z,1.78
2023-01-15T11:25:52.382Z,2.69
2023-01-15T11:28:31.295Z,2.56
2023-01-15T11:30:59.725Z,2.58
2023-01-15T11:33:32.312Z,2.32
2023-01-15T11:36:03.014Z,2.68
2023-01-15T11:38:32.823Z,2.71
2023-01-15T11:41:05.480Z,2.42
2023-01-15T11:43:50.502Z,2.22
2023-01-15T11:46:40.880Z,2.52
2023-01-15T11:49:29.579Z,2.60
2023-01-15T11:51:59.941Z,2.59
2023-01-15T11:54:29.192Z,2.50
2023-01-15T11:56:58.145Z,2.55
2023-01-15T11:59:27.243Z,2.54
2023-01-15T12:02:00.197Z,2.62
2023-01-15T12:04:36.030Z,2.56
2023-01-15T12:07:06.651Z,2.56
2023-01-15T12:09:53.041Z,2.56
2023-01-15T12:12:34.115Z,2.57
2023-01-15T12:15:17.588Z,2.18
2023-01-15T12:18:02.840Z,2.36
2023-01-15T12:20:49.109Z,2.62
2023-01-15T12:23:45.676Z,2.63
2023-01-15T12:26:21.417Z,2.53
2023-01-15T12:28:59.374Z,2.73
2023-01-15T12:31:34.253Z,2.74
2023-01-15T12:34:09.798Z,2.74
2023-01-15T12:36:49.017Z,2.73
2023-01-15T12:39:23.215Z,2.73
2023-01-15T12:42:13.278Z,2.65
2023-01-15T12:45:04.890Z,2.71
2023-01-15T12:47:41.489Z,2.59
2023-01-15T12:50:25.377Z,2.70
2023-01-15T12:53:02.764Z,2.76
2023-01-15T12:55:33.325Z,2.48
2023-01-15T12:58:05.042Z,2.68
2023-01-15T13:00:37.604Z,2.08
2023-01-15T13:03:18.329Z,2.57
2023-01-15T13:05:50.122Z,2.64
2023-01-15T13:08:27.010Z,2.60
2023-01-15T13:10:55.461Z,2.81
2023-01-15T13:13:25.800Z,2.19
2023-01-15T13:16:09.063Z,2.27
2023-01-15T13:18:48.749Z,2.39
2023-01-15T13:21:20.503Z,2.45
2023-01-15T13:24:06.933Z,2.39
2023-01-15T13:26:55.783Z,2.31
2023-01-15T13:29:35.832Z,2.42
2023-01-15T13:32:09.987Z,2.41
2023-01-15T13:34:46.130Z,2.33
2023-01-15T13:37:21.812Z,2.43
2023-01-15T13:39:55.060Z,2.42
2023-01-15T13:42:35.522Z,2.58
2023-01-15T13:45:09.393Z,2.34
2023-01-15T13:47:43.518Z,2.41
2023-01-15T13:50:18.394Z,2.31
2023-01-15T13:52:47.826Z,2.32
2023-01-15T13:55:27.841Z,2.41
2023-01-15T13:57:56.268Z,2.30
2023-01-15T14:00:30.778Z,2.38
2023-01-15T14:03:00.648Z,2.34
2023-01-15T14:05:33.241Z,2.36
2023-01-15T14:08:02.627Z,2.45
2023-01-15T14:10:40.619Z,2.48
2023-01-15T14:13:46.739Z,1.85
2023-01-15T14:16:24.742Z,2.09
2023-01-15T14:19:14.406Z,2.32
2023-01-15T14:21:53.156Z,2.42
2023-01-15T14:24:59.605Z,2.32
2023-01-15T14:27:51.026Z,2.34
2023-01-15T14:30:32.581Z,2.22
2023-01-15T14:33:11.856Z,2.16
2023-01-15T14:35:47.099Z,2.11
2023-01-15T14:38:19.335Z,2.12
2023-01-15T14:40:59.704Z,1.78
2023-01-15T14:43:33.710Z,2.07
2023-01-15T14:46:16.757Z,2.18
2023-01-15T14:48:45.150Z,1.92
2023-01-15T14:51:16.525Z,1.95
2023-01-15T14:53:46.799Z,2.09
2023-01-15T14:56:21.453Z,2.05
2023-01-15T14:58:59.804Z,2.11
2023-01-15T15:01:39.278Z,2.15
2023-01-15T15:04:21.470Z,2.07
2023-01-15T15:06:52.913Z,2.22
2023-01-15T15:09:30.842Z,2.26
2023-01-15T15:12:21.236Z,2.19
2023-01-15T15:15:00.767Z,2.22
2023-01-15T15:17:38.573Z,2.14
2023-01-15T15:20:23.527Z,2.12
2023-01-15T15:22:56.606Z,2.34
2023-01-15T15:25:28.846Z,2.11
2023-01-15T15:28:05.072Z,2.01
2023-01-15T15:30:37.520Z,2.08
2023-01-15T15:33:08.926Z,2.00
2023-01-15T15:35:40.704Z,1.67
2023-01-15T15:38:09.021Z,2.09
2023-01-15T15:40:38.729Z,2.04
2023-01-15T15:43:33.384Z,2.04
2023-01-15T15:46:35.022Z,2.42
2023-01-15T15:49:05.893Z,2.38
2023-01-15T15:51:36.406Z,2.29
2023-01-15T15:54:06.999Z,2.44
2023-01-15T15:56:36.447Z,2.34
2023-01-15T15:59:06.463Z,2.18
2023-01-15T16:01:40.601Z,2.20
2023-01-15T16:04:16.715Z,2.15
2023-01-15T16:06:45.191Z,2.09
2023-01-15T16:09:13.596Z,2.27
2023-01-15T16:11:42.946Z,1.59
2023-01-15T16:14:16.052Z,2.32
2023-01-15T16:16:48.295Z,2.18
2023-01-15T16:19:21.775Z,2.10
2023-01-15T16:21:51.506Z,2.27
2023-01-15T16:24:26.234Z,2.13
2023-01-15T16:27:01.061Z,2.06
2023-01-15T16:29:32.665Z,2.10
2023-01-15T16:32:02.962Z,2.24
2023-01-15T16:34:34.087Z,1.96
2023-01-15T16:37:04.004Z,2.03
2023-01-15T16:39:39.327Z,2.35
2023-01-15T16:42:26.943Z,2.02
2023-01-15T16:44:58.392Z,2.30
2023-01-15T16:47:32.376Z,2.22
2023-01-15T16:50:26.864Z,2.28
2023-01-15T16:52:56.309Z,2.25
2023-01-15T16:55:42.787Z,2.10
2023-01-15T16:58:19.346Z,1.97
2023-01-15T17:00:50.092Z,2.09
2023-01-15T17:03:23.078Z,1.98
2023-01-15T17:05:55.467Z,2.10
2023-01-15T17:08:30.471Z,2.07
2023-01-15T17:11:02.493Z,2.11
2023-01-15T17:13:35.671Z,2.22
2023-01-15T17:16:09.059Z,2.05
2023-01-15T17:18:38.895Z,2.08
2023-01-15T17:21:08.100Z,1.53
2023-01-15T17:23:39.007Z,1.88
2023-01-15T17:26:09.048Z,2.32
2023-01-15T17:28:37.442Z,2.13
2023-01-15T17:31:06.070Z,2.03
2023-01-15T17:33:34.468Z,2.01
2023-01-15T17:36:04.292Z,2.12
2023-01-15T17:38:32.841Z,2.29
2023-01-15T17:41:03.670Z,2.15
2023-01-15T17:43:31.980Z,2.11
2023-01-15T17:46:01.393Z,1.98
2023-01-15T17:48:29.855Z,2.03
2023-01-15T17:51:01.327Z,2.12
2023-01-15T17:53:32.613Z,1.91
2023-01-15T17:56:17.995Z,2.05
2023-01-15T17:59:03.572Z,2.15
2023-01-15T18:01:54.712Z,2.22
2023-01-15T18:04:44.750Z,2.08
2023-01-15T18:07:14.459Z,2.06
2023-01-15T18:09:45.374Z,2.14
2023-01-15T18:12:13.856Z,2.13
2023-01-15T18:14:42.424Z,1.95
2023-01-15T18:17:11.746Z,2.13
2023-01-15T18:19:40.082Z,2.10
2023-01-15T18:22:08.894Z,2.06
2023-01-15T18:24:37.474Z,1.94
2023-01-15T18:27:07.511Z,1.98
2023-01-15T18:29:40.096Z,1.93
2023-01-15T18:32:09.363Z,1.98
2023-01-15T18:34:37.900Z,2.00
2023-01-15T18:37:06.894Z,1.85
2023-01-15T18:39:37.354Z,1.97
2023-01-15T18:42:24.526Z,2.01
2023-01-15T18:45:10.114Z,1.95
2023-01-15T18:47:41.176Z,1.91
2023-01-15T18:50:11.310Z,1.88
2023-01-15T18:52:51.973Z,1.95
2023-01-15T18:55:22.652Z,1.95
2023-01-15T18:57:52.828Z,1.88
2023-01-15T19:00:23.187Z,2.01
2023-01-15T19:02:52.166Z,1.88
2023-01-15T19:05:20.828Z,2.08
2023-01-15T19:07:49.627Z,1.80
2023-01-15T19:10:19.106Z,1.88
2023-01-15T19:12:48.213Z,1.95
2023-01-15T19:15:38.084Z,1.83
2023-01-15T19:18:23.931Z,1.89
2023-01-15T19:20:52.825Z,1.73
2023-01-15T19:23:22.124Z,1.33
2023-01-15T19:25:50.787Z,1.94
2023-01-15T19:28:21.604Z,1.97
2023-01-15T19:31:05.597Z,1.84
2023-01-15T19:33:34.280Z,1.60
2023-01-15T19:36:02.675Z,1.86
2023-01-15T19:38:31.034Z,1.50
2023-01-15T19:41:19.397Z,1.93
2023-01-15T19:44:05.239Z,1.78
2023-01-15T19:46:58.962Z,1.70
2023-01-15T19:49:45.261Z,1.79
2023-01-15T19:52:30.705Z,1.06
2023-01-15T19:55:00.155Z,1.64
2023-01-15T19:57:28.537Z,1.75
2023-01-15T19:59:58.008Z,1.71
2023-01-15T20:02:29.802Z,1.71
2023-01-15T20:04:58.523Z,1.20
2023-01-15T20:07:27.779Z,1.88
2023-01-15T20:09:57.350Z,1.80
2023-01-15T20:12:43.765Z,1.71
2023-01-15T20:15:12.503Z,1.65
2023-01-15T20:17:42.557Z,1.22
2023-01-15T20:20:12.443Z,1.88
2023-01-15T20:22:41.258Z,1.57
2023-01-15T20:25:12.901Z,1.59
2023-01-15T20:27:42.072Z,1.65
2023-01-15T20:30:15.415Z,1.69
2023-01-15T20:32:47.835Z,1.68
2023-01-15T20:35:19.640Z,1.42
2023-01-15T20:37:49.938Z,1.81
2023-01-15T20:40:20.870Z,1.75
2023-01-15T20:43:07.511Z,1.81
2023-01-15T20:45:36.461Z,1.82
2023-01-15T20:48:25.264Z,1.76
2023-01-15T20:51:03.261Z,1.42
2023-01-15T20:53:34.790Z,1.69
2023-01-15T20:56:04.425Z,1.58
2023-01-15T20:58:33.956Z,1.75
2023-01-15T21:01:08.857Z,1.40
2023-01-15T21:03:39.916Z,1.55
2023-01-15T21:06:09.947Z,1.67
2023-01-15T21:08:40.885Z,1.85
2023-01-15T21:11:13.026Z,1.89
2023-01-15T21:13:45.154Z,1.66
2023-01-15T21:16:15.841Z,1.97
2023-01-15T21:18:46.562Z,1.78
2023-01-15T21:21:17.775Z,1.83
2023-01-15T21:23:46.671Z,1.86
2023-01-15T21:26:15.643Z,1.80
2023-01-15T21:28:45.665Z,1.75
2023-01-15T21:31:16.394Z,1.85
2023-01-15T21:33:47.874Z,1.75
2023-01-15T21:36:17.888Z,1.79
2023-01-15T21:38:51.531Z,1.60
2023-01-15T21:41:20.676Z,1.66
2023-01-15T21:44:07.226Z,1.67
2023-01-15T21:46:36.941Z,1.82
2023-01-15T21:49:07.801Z,1.87
2023-01-15T21:51:36.907Z,1.96
2023-01-15T21:54:05.763Z,1.92
2023-01-15T21:56:34.121Z,1.65
2023-01-15T21:59:02.427Z,1.88
2023-01-15T22:01:30.962Z,1.78
2023-01-15T22:03:59.382Z,1.82
2023-01-15T22:06:29.228Z,1.72
2023-01-15T22:08:57.710Z,1.67
2023-01-15T22:11:43.676Z,1.57
2023-01-15T22:14:14.108Z,1.57
2023-01-15T22:16:43.217Z,1.55
2023-01-15T22:19:12.824Z,1.41
2023-01-15T22:21:42.597Z,1.83
2023-01-15T22:24:10.897Z,1.78
2023-01-15T22:26:43.175Z,1.83
2023-01-15T22:29:11.967Z,1.47
2023-01-15T22:31:41.737Z,1.39
2023-01-15T22:34:10.251Z,1.84
2023-01-15T22:36:38.739Z,1.69
2023-01-15T22:39:08.471Z,1.33
2023-01-15T22:41:54.371Z,1.62
2023-01-15T22:44:22.755Z,1.52
2023-01-15T22:46:54.054Z,1.72
2023-01-15T22:49:23.131Z,1.74
2023-01-15T22:51:52.563Z,1.73
2023-01-15T22:54:22.300Z,1.68
2023-01-15T22:56:50.789Z,1.50
2023-01-15T22:59:19.579Z,1.76
2023-01-15T23:01:48.010Z,1.44
2023-01-15T23:04:18.148Z,1.74
2023-01-15T23:06:46.568Z,1.75
2023-01-15T23:09:15.306Z,1.62
2023-01-15T23:11:46.270Z,1.80
2023-01-15T23:14:16.442Z,1.77
2023-01-15T23:16:45.229Z,1.74
2023-01-15T23:19:14.387Z,1.69
2023-01-15T23:21:43.438Z,1.45
2023-01-15T23:24:12.701Z,1.69
2023-01-15T23:26:41.229Z,1.44
2023-01-15T23:29:10.949Z,1.69
2023-01-15T23:31:39.315Z,1.66
2023-01-15T23:34:07.680Z,1.63
2023-01-15T23:36:36.151Z,1.30
2023-01-15T23:39:04.490Z,1.69
2023-01-15T23:41:49.965Z,1.43
2023-01-15T23:44:39.816Z,1.33
2023-01-15T23:47:09.374Z,1.42
2023-01-15T23:49:38.034Z,1.36
2023-01-15T23:52:07.777Z,1.12
2023-01-15T23:54:36.148Z,1.43
2023-01-15T23:57:04.909Z,1.45
2023-01-15T23:59:34.698Z,1.43
